createdAt,value
2022-11-24T00:01:17.753Z,0.70
2022-11-24T00:03:47.290Z,0.60
2022-11-24T00:06:15.798Z,0.50
2022-11-24T00:08:45.876Z,0.50
2022-11-24T00:11:16.973Z,0.40
2022-11-24T00:13:46.500Z,0.40
2022-11-24T00:16:16.712Z,0.40
2022-11-24T00:18:47.545Z,0.40
2022-11-24T00:21:16.902Z,0.30
2022-11-24T00:23:45.263Z,0.30
2022-11-24T00:26:15.575Z,0.20
2022-11-24T00:28:44.983Z,0.10
2022-11-24T00:31:20.128Z,0.10
2022-11-24T00:33:49.740Z,0.10
2022-11-24T00:36:19.066Z,0.00
2022-11-24T00:38:47.565Z,-0.10
2022-11-24T00:41:15.627Z,-0.10
2022-11-24T00:43:43.696Z,-0.10
2022-11-24T00:46:12.534Z,-0.10
2022-11-24T00:48:42.277Z,-0.10
2022-11-24T00:51:13.113Z,-0.10
2022-11-24T00:53:41.677Z,0.00
2022-11-24T00:56:11.117Z,0.00
2022-11-24T00:58:39.133Z,0.00
2022-11-24T01:01:08.919Z,-0.10
2022-11-24T01:03:37.108Z,-0.10
2022-11-24T01:06:07.614Z,-0.10
2022-11-24T01:08:37.559Z,-0.20
2022-11-24T01:11:11.998Z,-0.20
2022-11-24T01:13:41.046Z,-0.20
2022-11-24T01:16:15.508Z,-0.30
2022-11-24T01:18:43.716Z,-0.30
2022-11-24T01:21:13.445Z,-0.30
2022-11-24T01:23:41.821Z,-0.30
2022-11-24T01:26:12.607Z,-0.30
2022-11-24T01:28:46.358Z,-0.30
2022-11-24T01:31:16.028Z,-0.30
2022-11-24T01:33:44.288Z,-0.30
2022-11-24T01:36:14.196Z,-0.30
2022-11-24T01:38:42.740Z,-0.40
2022-11-24T01:41:13.910Z,-0.40
2022-11-24T01:43:43.225Z,-0.50
2022-11-24T01:46:18.649Z,-0.50
2022-11-24T01:48:50.089Z,-0.50
2022-11-24T01:51:23.718Z,-0.50
2022-11-24T01:53:55.811Z,-0.60
2022-11-24T01:56:24.657Z,-0.60
2022-11-24T01:58:56.257Z,-0.60
2022-11-24T02:01:24.877Z,-0.60
2022-11-24T02:03:53.980Z,-0.70
2022-11-24T02:06:27.384Z,-0.70
2022-11-24T02:08:59.779Z,-0.70
2022-11-24T02:11:31.610Z,-0.70
2022-11-24T02:14:00.554Z,-0.70
2022-11-24T02:16:30.067Z,-0.80
2022-11-24T02:18:58.599Z,-0.80
2022-11-24T02:21:28.556Z,-0.80
2022-11-24T02:24:04.898Z,-0.90
2022-11-24T02:26:42.766Z,-0.90
2022-11-24T02:29:11.742Z,-0.90
2022-11-24T02:31:41.493Z,-1.00
2022-11-24T02:34:09.708Z,-1.00
2022-11-24T02:36:37.986Z,-1.00
2022-11-24T02:39:10.523Z,-1.10
2022-11-24T02:41:43.308Z,-1.10
2022-11-24T02:44:13.863Z,-1.20
2022-11-24T02:46:41.980Z,-1.20
2022-11-24T02:49:10.469Z,-1.20
2022-11-24T02:51:38.541Z,-1.20
2022-11-24T02:54:06.623Z,-1.10
2022-11-24T02:56:34.621Z,-1.10
2022-11-24T02:59:04.025Z,-1.10
2022-11-24T03:01:32.103Z,-1.10
2022-11-24T03:04:00.800Z,-1.10
2022-11-24T03:06:28.846Z,-1.10
2022-11-24T03:08:57.147Z,-1.10
2022-11-24T03:11:25.544Z,-1.00
2022-11-24T03:13:54.102Z,-1.00
2022-11-24T03:16:23.794Z,-1.10
2022-11-24T03:18:52.523Z,-1.00
2022-11-24T03:21:20.809Z,-1.00
2022-11-24T03:23:48.931Z,-1.00
2022-11-24T03:26:19.488Z,-1.00
2022-11-24T03:28:47.675Z,-0.90
2022-11-24T03:31:16.194Z,-0.80
2022-11-24T03:33:45.824Z,-0.80
2022-11-24T03:36:13.689Z,-0.70
2022-11-24T03:38:41.735Z,-0.70
2022-11-24T03:41:09.788Z,-0.80
2022-11-24T03:43:43.209Z,-0.70
2022-11-24T03:46:12.841Z,-0.80
2022-11-24T03:48:41.418Z,-0.70
2022-11-24T03:51:11.847Z,-0.70
2022-11-24T03:53:39.934Z,-0.80
2022-11-24T03:56:08.363Z,-0.70
2022-11-24T03:58:36.437Z,-0.70
2022-11-24T04:01:04.611Z,-0.70
2022-11-24T04:03:32.662Z,-0.60
2022-11-24T04:06:00.828Z,-0.60
2022-11-24T04:08:30.295Z,-0.60
2022-11-24T04:10:58.131Z,-0.60
2022-11-24T04:13:26.153Z,-0.60
2022-11-24T04:15:54.507Z,-0.50
2022-11-24T04:18:23.328Z,-0.50
2022-11-24T04:20:52.825Z,-0.50
2022-11-24T04:23:20.748Z,-0.50
2022-11-24T04:25:50.257Z,-0.40
2022-11-24T04:28:18.346Z,-0.40
2022-11-24T04:30:46.360Z,-0.40
2022-11-24T04:33:15.396Z,-0.30
2022-11-24T04:35:43.456Z,-0.30
2022-11-24T04:38:11.566Z,-0.20
2022-11-24T04:40:39.614Z,-0.20
2022-11-24T04:43:10.402Z,-0.20
2022-11-24T04:45:38.940Z,-0.10
2022-11-24T04:48:07.419Z,-0.10
2022-11-24T04:50:35.526Z,-0.10
2022-11-24T04:53:03.596Z,-0.10
2022-11-24T04:55:31.718Z,-0.10
2022-11-24T04:58:00.052Z,-0.10
2022-11-24T05:00:29.534Z,0.00
2022-11-24T05:02:57.584Z,0.00
2022-11-24T05:05:25.640Z,0.00
2022-11-24T05:07:53.779Z,0.10
2022-11-24T05:10:36.866Z,0.10
2022-11-24T05:13:06.558Z,0.10
2022-11-24T05:15:37.840Z,0.10
2022-11-24T05:18:06.984Z,0.20
2022-11-24T05:20:35.640Z,0.20
2022-11-24T05:23:04.879Z,0.20
2022-11-24T05:25:33.317Z,0.30
2022-11-24T05:28:02.448Z,0.30
2022-11-24T05:30:32.075Z,0.30
2022-11-24T05:33:06.658Z,0.30
2022-11-24T05:35:36.395Z,0.30
2022-11-24T05:38:05.649Z,0.40
2022-11-24T05:40:33.712Z,0.40
2022-11-24T05:43:01.848Z,0.40
2022-11-24T05:45:30.163Z,0.40
2022-11-24T05:48:07.543Z,0.50
2022-11-24T05:50:36.643Z,0.50
2022-11-24T05:53:04.864Z,0.50
2022-11-24T05:55:33.604Z,0.50
2022-11-24T05:58:03.087Z,0.60
2022-11-24T06:00:31.296Z,0.60
2022-11-24T06:02:59.925Z,0.60
2022-11-24T06:05:30.383Z,0.60
2022-11-24T06:08:00.254Z,0.60
2022-11-24T06:10:29.366Z,0.60
2022-11-24T06:12:57.446Z,0.70
2022-11-24T06:15:25.498Z,0.70
2022-11-24T06:17:56.947Z,0.70
2022-11-24T06:20:31.172Z,0.70
2022-11-24T06:23:02.456Z,0.80
2022-11-24T06:25:30.887Z,0.80
2022-11-24T06:27:58.938Z,0.80
2022-11-24T06:30:27.169Z,0.80
2022-11-24T06:32:56.732Z,0.80
2022-11-24T06:35:24.582Z,0.90
2022-11-24T06:37:52.586Z,0.90
2022-11-24T06:40:22.179Z,0.90
2022-11-24T06:42:53.219Z,0.90
2022-11-24T06:45:21.598Z,0.90
2022-11-24T06:47:49.907Z,1.00
2022-11-24T06:50:18.373Z,0.90
2022-11-24T06:52:46.438Z,1.00
2022-11-24T06:55:15.196Z,1.00
2022-11-24T06:57:44.651Z,1.10
2022-11-24T07:00:13.698Z,1.10
2022-11-24T07:02:45.842Z,1.10
2022-11-24T07:05:14.457Z,1.10
2022-11-24T07:07:42.603Z,1.20
2022-11-24T07:10:11.223Z,1.20
2022-11-24T07:12:39.664Z,1.20
2022-11-24T07:15:10.440Z,1.20
2022-11-24T07:17:39.210Z,1.30
2022-11-24T07:20:08.724Z,1.30
2022-11-24T07:22:36.581Z,1.40
2022-11-24T07:25:07.444Z,1.40
2022-11-24T07:27:35.730Z,1.50
2022-11-24T07:30:04.341Z,1.50
2022-11-24T07:32:34.002Z,1.50
2022-11-24T07:35:02.387Z,1.60
2022-11-24T07:37:31.730Z,1.60
2022-11-24T07:39:59.902Z,1.60
2022-11-24T07:42:28.739Z,1.70
2022-11-24T07:44:56.815Z,1.70
2022-11-24T07:47:24.924Z,1.80
2022-11-24T07:49:54.517Z,1.80
2022-11-24T07:52:23.368Z,1.90
2022-11-24T07:54:51.435Z,2.00
2022-11-24T07:57:19.808Z,2.00
2022-11-24T07:59:47.889Z,2.00
2022-11-24T08:02:15.988Z,2.10
2022-11-24T08:04:44.019Z,2.20
2022-11-24T08:07:13.527Z,2.20
2022-11-24T08:09:41.476Z,2.30
2022-11-24T08:12:09.589Z,2.30
2022-11-24T08:14:37.676Z,2.40
2022-11-24T08:17:05.823Z,2.50
2022-11-24T08:19:34.818Z,2.50
2022-11-24T08:22:02.956Z,2.50
2022-11-24T08:24:32.547Z,2.60
2022-11-24T08:27:00.960Z,2.70
2022-11-24T08:29:29.842Z,2.80
2022-11-24T08:31:59.544Z,2.90
2022-11-24T08:34:27.715Z,2.90
2022-11-24T08:36:55.821Z,3.10
2022-11-24T08:39:23.998Z,3.10
2022-11-24T08:41:53.469Z,3.20
2022-11-24T08:44:21.593Z,3.30
2022-11-24T08:46:50.301Z,3.40
2022-11-24T08:49:18.966Z,3.50
2022-11-24T08:51:48.579Z,3.70
2022-11-24T08:54:18.621Z,3.80
2022-11-24T08:56:47.105Z,3.90
2022-11-24T08:59:16.804Z,4.00
2022-11-24T09:01:45.066Z,4.00
2022-11-24T09:04:13.240Z,4.10
2022-11-24T09:06:41.347Z,4.20
2022-11-24T09:09:10.988Z,4.30
2022-11-24T09:11:38.852Z,4.40
2022-11-24T09:14:07.750Z,4.50
2022-11-24T09:16:37.857Z,4.60
2022-11-24T09:19:07.995Z,4.70
2022-11-24T09:21:39.025Z,4.80
2022-11-24T09:24:08.413Z,4.90
2022-11-24T09:26:41.877Z,5.00
2022-11-24T09:29:14.257Z,5.10
2022-11-24T09:31:43.693Z,5.30
2022-11-24T09:34:15.122Z,5.40
2022-11-24T09:36:43.314Z,5.50
2022-11-24T09:39:12.139Z,5.60
2022-11-24T09:41:51.351Z,5.70
2022-11-24T09:44:40.332Z,5.80
2022-11-24T09:47:21.743Z,5.90
2022-11-24T09:49:55.617Z,6.00
2022-11-24T09:52:38.609Z,6.10
2022-11-24T09:55:20.575Z,6.20
2022-11-24T09:58:02.907Z,6.20
2022-11-24T10:00:31.407Z,6.20
2022-11-24T10:03:01.220Z,6.30
2022-11-24T10:05:33.836Z,6.30
2022-11-24T10:08:12.175Z,6.40
2022-11-24T10:10:51.381Z,6.60
2022-11-24T10:13:36.698Z,6.60
2022-11-24T10:16:13.730Z,6.60
2022-11-24T10:18:58.416Z,6.70
2022-11-24T10:21:45.976Z,6.80
2022-11-24T10:24:30.264Z,6.80
2022-11-24T10:27:02.977Z,6.90
2022-11-24T10:29:35.683Z,7.10
2022-11-24T10:32:08.956Z,7.10
2022-11-24T10:34:42.713Z,7.30
2022-11-24T10:37:17.987Z,7.40
2022-11-24T10:39:59.847Z,7.50
2022-11-24T10:42:30.536Z,7.60
2022-11-24T10:45:02.414Z,7.70
2022-11-24T10:47:31.745Z,7.70
2022-11-24T10:50:04.351Z,7.80
2022-11-24T10:52:41.484Z,7.90
2022-11-24T10:55:10.341Z,7.90
2022-11-24T10:57:39.760Z,8.00
2022-11-24T11:00:32.819Z,8.00
2022-11-24T11:03:18.964Z,8.10
2022-11-24T11:05:53.155Z,8.10
2022-11-24T11:08:24.489Z,8.10
2022-11-24T11:11:12.877Z,8.10
2022-11-24T11:13:52.062Z,8.10
2022-11-24T11:16:32.201Z,8.20
2022-11-24T11:19:15.689Z,8.10
2022-11-24T11:22:01.247Z,8.10
2022-11-24T11:24:30.068Z,8.10
2022-11-24T11:27:01.999Z,8.20
2022-11-24T11:35:14.085Z,8.30
2022-11-24T11:37:45.335Z,8.40
2022-11-24T11:40:18.411Z,8.40
2022-11-24T11:43:05.758Z,8.40
2022-11-24T11:45:37.362Z,8.40
2022-11-24T11:48:26.375Z,8.50
2022-11-24T11:53:55.467Z,8.50
2022-11-24T11:56:27.053Z,8.60
2022-11-24T11:59:36.612Z,8.60
2022-11-24T12:02:49.955Z,8.60
2022-11-24T12:05:30.985Z,8.60
2022-11-24T12:08:15.993Z,8.50
2022-11-24T12:10:55.461Z,8.60
2022-11-24T12:13:49.418Z,8.50
2022-11-24T12:16:31.121Z,8.50
2022-11-24T12:19:16.751Z,8.50
2022-11-24T12:21:51.448Z,8.50
2022-11-24T12:24:25.146Z,8.50
2022-11-24T12:26:59.833Z,8.40
2022-11-24T12:29:48.263Z,8.40
2022-11-24T12:32:30.642Z,8.40
2022-11-24T12:35:04.589Z,8.30
2022-11-24T12:37:46.327Z,8.30
2022-11-24T12:40:18.470Z,8.20
2022-11-24T12:43:00.845Z,8.20
2022-11-24T12:45:35.265Z,8.20
2022-11-24T12:48:22.393Z,8.20
2022-11-24T12:50:53.348Z,8.20
2022-11-24T12:53:25.542Z,8.30
2022-11-24T12:55:55.888Z,8.30
2022-11-24T12:58:31.305Z,8.30
2022-11-24T13:01:16.137Z,8.30
2022-11-24T13:03:56.086Z,8.40
2022-11-24T13:06:25.257Z,8.50
2022-11-24T13:08:53.426Z,8.50
2022-11-24T13:11:43.619Z,8.50
2022-11-24T13:14:19.374Z,8.50
2022-11-24T13:17:31.069Z,8.40
2022-11-24T13:20:22.949Z,8.40
2022-11-24T13:22:53.865Z,8.40
2022-11-24T13:25:24.425Z,8.30
2022-11-24T13:27:55.420Z,8.30
2022-11-24T13:30:59.797Z,8.40
2022-11-24T13:33:37.070Z,8.40
2022-11-24T13:36:33.846Z,8.40
2022-11-24T13:39:03.937Z,8.40
2022-11-24T13:42:43.047Z,8.30
2022-11-24T13:45:00.160Z,8.40
2022-11-24T13:47:37.339Z,8.50
2022-11-24T13:50:10.000Z,8.60
2022-11-24T13:52:43.032Z,8.60
2022-11-24T13:55:34.818Z,8.70
2022-11-24T13:58:25.500Z,8.60
2022-11-24T14:01:15.679Z,8.50
2022-11-24T14:07:07.024Z,8.30
2022-11-24T14:09:40.922Z,8.20
2022-11-24T14:12:15.259Z,8.20
2022-11-24T14:14:45.487Z,8.10
2022-11-24T14:17:19.449Z,8.10
2022-11-24T14:19:49.390Z,8.10
2022-11-24T14:22:21.911Z,8.10
2022-11-24T14:24:55.619Z,7.90
2022-11-24T14:27:30.403Z,7.90
2022-11-24T14:30:01.224Z,7.80
2022-11-24T14:32:29.399Z,7.80
2022-11-24T14:34:57.880Z,7.70
2022-11-24T14:37:27.519Z,7.60
2022-11-24T14:39:55.418Z,7.50
2022-11-24T14:42:27.333Z,7.40
2022-11-24T14:44:58.783Z,7.30
2022-11-24T14:47:31.615Z,7.20
2022-11-24T14:50:10.692Z,7.10
2022-11-24T14:52:47.090Z,7.00
2022-11-24T14:55:29.030Z,7.00
2022-11-24T14:57:57.680Z,6.90
2022-11-24T15:00:31.732Z,6.80
2022-11-24T15:03:16.040Z,6.70
2022-11-24T15:05:55.869Z,6.70
2022-11-24T15:08:26.784Z,6.70
2022-11-24T15:11:01.117Z,6.60
2022-11-24T15:13:32.086Z,6.60
2022-11-24T15:16:03.724Z,6.50
2022-11-24T15:18:38.537Z,6.50
2022-11-24T15:21:07.197Z,6.40
2022-11-24T15:23:37.621Z,6.30
2022-11-24T15:26:31.269Z,6.30
2022-11-24T15:29:01.336Z,6.20
2022-11-24T15:31:29.817Z,6.10
2022-11-24T15:33:57.945Z,6.00
2022-11-24T15:36:25.987Z,5.90
2022-11-24T15:38:55.461Z,5.90
2022-11-24T15:41:27.799Z,5.80
2022-11-24T15:43:59.222Z,5.80
2022-11-24T15:46:27.926Z,5.80
2022-11-24T15:48:57.192Z,5.80
2022-11-24T15:51:27.106Z,5.80
2022-11-24T15:54:01.069Z,5.70
2022-11-24T15:56:33.094Z,5.70
2022-11-24T15:59:01.484Z,5.60
2022-11-24T16:01:33.313Z,5.60
2022-11-24T16:04:01.503Z,5.60
2022-11-24T16:06:29.741Z,5.60
2022-11-24T16:08:59.576Z,5.50
2022-11-24T16:11:27.936Z,5.60
2022-11-24T16:13:56.120Z,5.50
2022-11-24T16:16:25.688Z,5.50
2022-11-24T16:18:53.742Z,5.50
2022-11-24T16:21:23.175Z,5.60
2022-11-24T16:23:52.656Z,5.50
2022-11-24T16:26:22.360Z,5.50
2022-11-24T16:28:50.431Z,5.60
2022-11-24T16:31:19.703Z,5.50
2022-11-24T16:33:48.073Z,5.60
2022-11-24T16:36:16.409Z,5.50
2022-11-24T16:38:45.242Z,5.50
2022-11-24T16:41:13.483Z,5.50
2022-11-24T16:43:43.896Z,5.50
2022-11-24T16:46:20.234Z,5.50
2022-11-24T16:48:50.243Z,5.50
2022-11-24T16:51:20.352Z,5.50
2022-11-24T16:53:48.547Z,5.40
2022-11-24T16:56:17.431Z,5.40
2022-11-24T16:58:47.006Z,5.40
2022-11-24T17:01:15.135Z,5.40
2022-11-24T17:03:43.300Z,5.50
2022-11-24T17:06:15.653Z,5.50
2022-11-24T17:08:44.690Z,5.50
2022-11-24T17:11:14.533Z,5.50
2022-11-24T17:13:43.355Z,5.60
2022-11-24T17:16:14.715Z,5.70
2022-11-24T17:18:43.126Z,5.70
2022-11-24T17:21:13.740Z,5.70
2022-11-24T17:23:42.128Z,5.70
2022-11-24T17:26:12.942Z,5.70
2022-11-24T17:28:41.680Z,5.70
2022-11-24T17:31:17.641Z,5.70
2022-11-24T17:33:45.866Z,5.60
2022-11-24T17:36:14.109Z,5.60
2022-11-24T17:38:42.305Z,5.60
2022-11-24T17:41:10.579Z,5.50
2022-11-24T17:43:38.940Z,5.60
2022-11-24T17:46:07.624Z,5.60
2022-11-24T17:48:37.609Z,5.50
2022-11-24T17:51:08.308Z,5.60
2022-11-24T17:53:39.072Z,5.50
2022-11-24T17:56:08.147Z,5.50
2022-11-24T17:58:42.567Z,5.50
2022-11-24T18:01:11.717Z,5.50
2022-11-24T18:03:41.970Z,5.50
2022-11-24T18:06:11.915Z,5.50
2022-11-24T18:08:41.455Z,5.50
2022-11-24T18:11:10.509Z,5.60
2022-11-24T18:13:56.502Z,5.60
2022-11-24T18:16:28.077Z,5.60
2022-11-24T18:19:07.924Z,5.60
2022-11-24T18:21:38.163Z,5.60
2022-11-24T18:24:06.186Z,5.60
2022-11-24T18:26:34.393Z,5.60
2022-11-24T18:29:02.773Z,5.60
2022-11-24T18:31:31.242Z,5.60
2022-11-24T18:34:02.681Z,5.60
2022-11-24T18:36:31.046Z,5.60
2022-11-24T18:39:00.991Z,5.60
2022-11-24T18:41:29.149Z,5.60
2022-11-24T18:43:57.268Z,5.50
2022-11-24T18:46:25.898Z,5.50
2022-11-24T18:48:54.134Z,5.50
2022-11-24T18:51:23.640Z,5.50
2022-11-24T18:53:53.345Z,5.60
2022-11-24T18:56:21.571Z,5.60
2022-11-24T18:58:52.910Z,5.60
2022-11-24T19:01:22.988Z,5.50
2022-11-24T19:03:52.504Z,5.60
2022-11-24T19:06:20.991Z,5.50
2022-11-24T19:08:53.475Z,5.50
2022-11-24T19:11:23.668Z,5.60
2022-11-24T19:13:52.208Z,5.60
2022-11-24T19:16:21.661Z,5.50
2022-11-24T19:18:54.103Z,5.60
2022-11-24T19:21:23.749Z,5.50
2022-11-24T19:23:53.263Z,5.60
2022-11-24T19:26:21.427Z,5.60
2022-11-24T19:28:49.622Z,5.60
2022-11-24T19:31:19.656Z,5.60
2022-11-24T19:33:48.495Z,5.60
2022-11-24T19:36:18.272Z,5.60
2022-11-24T19:38:53.922Z,5.60
2022-11-24T19:41:24.597Z,5.60
2022-11-24T19:43:53.418Z,5.60
2022-11-24T19:46:23.169Z,5.60
2022-11-24T19:48:54.208Z,5.60
2022-11-24T19:51:23.952Z,5.60
2022-11-24T19:53:54.115Z,5.60
2022-11-24T19:56:24.620Z,5.60
2022-11-24T19:58:54.595Z,5.60
2022-11-24T20:01:25.176Z,5.60
2022-11-24T20:03:58.784Z,5.50
2022-11-24T20:06:28.287Z,5.50
2022-11-24T20:08:58.038Z,5.50
2022-11-24T20:11:26.633Z,5.50
2022-11-24T20:13:54.728Z,5.50
2022-11-24T20:16:26.549Z,5.50
2022-11-24T20:18:56.560Z,5.40
2022-11-24T20:21:28.597Z,5.40
2022-11-24T20:24:01.175Z,5.40
2022-11-24T20:26:31.533Z,5.30
2022-11-24T20:29:01.252Z,5.40
2022-11-24T20:31:31.819Z,5.30
2022-11-24T20:34:00.885Z,5.40
2022-11-24T20:36:31.123Z,5.40
2022-11-24T20:39:03.013Z,5.40
2022-11-24T20:41:33.676Z,5.30
2022-11-24T20:44:04.981Z,5.30
2022-11-24T20:46:35.386Z,5.30
2022-11-24T20:49:04.512Z,5.30
2022-11-24T20:51:34.682Z,5.30
2022-11-24T20:54:07.894Z,5.30
2022-11-24T20:56:39.806Z,5.40
2022-11-24T20:59:08.383Z,5.40
2022-11-24T21:01:38.863Z,5.40
2022-11-24T21:04:08.760Z,5.40
2022-11-24T21:06:37.639Z,5.50
2022-11-24T21:09:08.658Z,5.40
2022-11-24T21:11:37.252Z,5.40
2022-11-24T21:14:06.002Z,5.50
2022-11-24T21:16:35.707Z,5.50
2022-11-24T21:19:06.430Z,5.50
2022-11-24T21:21:36.201Z,5.40
2022-11-24T21:24:07.427Z,5.40
2022-11-24T21:26:37.754Z,5.40
2022-11-24T21:29:06.851Z,5.40
2022-11-24T21:31:36.530Z,5.40
2022-11-24T21:34:05.401Z,5.50
2022-11-24T21:36:35.031Z,5.50
2022-11-24T21:39:04.428Z,5.50
2022-11-24T21:41:35.117Z,5.40
2022-11-24T21:44:04.381Z,5.40
2022-11-24T21:46:40.470Z,5.40
2022-11-24T21:49:10.534Z,5.40
2022-11-24T21:51:38.623Z,5.30
2022-11-24T21:54:07.347Z,5.30
2022-11-24T21:56:36.801Z,5.30
2022-11-24T21:59:05.317Z,5.30
2022-11-24T22:01:33.476Z,5.30
2022-11-24T22:04:01.618Z,5.30
2022-11-24T22:06:34.264Z,5.30
2022-11-24T22:09:02.355Z,5.30
2022-11-24T22:11:30.875Z,5.30
2022-11-24T22:14:00.259Z,5.30
2022-11-24T22:16:28.909Z,5.30
2022-11-24T22:18:56.996Z,5.40
2022-11-24T22:21:30.029Z,5.40
2022-11-24T22:23:58.623Z,5.40
2022-11-24T22:26:28.139Z,5.40
2022-11-24T22:28:57.298Z,5.40
2022-11-24T22:31:29.800Z,5.40
2022-11-24T22:33:59.153Z,5.40
2022-11-24T22:36:28.541Z,5.40
2022-11-24T22:38:57.653Z,5.30
2022-11-24T22:41:26.633Z,5.40
2022-11-24T22:43:55.035Z,5.40
2022-11-24T22:46:25.128Z,5.40
2022-11-24T22:48:55.836Z,5.40
2022-11-24T22:51:27.551Z,5.30
2022-11-24T22:53:57.513Z,5.30
2022-11-24T22:56:27.830Z,5.30
2022-11-24T22:58:56.725Z,5.20
2022-11-24T23:01:26.707Z,5.20
2022-11-24T23:03:56.619Z,5.10
2022-11-24T23:06:28.772Z,5.10
2022-11-24T23:08:58.083Z,5.00
2022-11-24T23:11:34.964Z,5.00
2022-11-24T23:14:06.567Z,5.00
2022-11-24T23:16:34.822Z,4.90
2022-11-24T23:19:04.508Z,4.90
2022-11-24T23:21:34.095Z,4.90
2022-11-24T23:24:02.660Z,4.90
2022-11-24T23:26:32.602Z,4.90
2022-11-24T23:29:00.781Z,4.90
2022-11-24T23:31:29.603Z,4.90
2022-11-24T23:33:58.976Z,4.90
2022-11-24T23:36:29.080Z,4.90
2022-11-24T23:38:57.483Z,4.90
2022-11-24T23:41:26.723Z,4.90
2022-11-24T23:43:54.786Z,4.90
2022-11-24T23:46:25.183Z,4.90
2022-11-24T23:48:54.872Z,4.90
2022-11-24T23:51:24.769Z,4.90
2022-11-24T23:53:54.970Z,4.90
2022-11-24T23:56:25.011Z,4.80
2022-11-24T23:58:53.471Z,4.80
